Time;durP1;ratioP1;P1;durP2;ratioP2;P2;SDS_P1;SDS_P2;PMS_P1;PMS_P2;Temp;Humidity;BMP_temperature;BMP_pressure;BME280_temperature;BME280_humidity;BME280_pressure;Samples;Min_cycle;Max_cycle;Signal;HPM_P1;HPM_P2
2021/03/08 00:00:18;;;;;;;12.83;8.50;;;5.20;99.90;;;;;;5012732;28;20400;-66
2021/03/08 00:02:44;;;;;;;11.60;7.82;;;4.00;99.90;;;;;;5012451;28;20528;-66
2021/03/08 00:05:11;;;;;;;12.40;8.10;;;4.50;99.90;;;;;;5012251;28;20389;-67
2021/03/08 00:07:38;;;;;;;10.50;8.50;;;4.10;99.90;;;;;;5012724;28;20420;-67
2021/03/08 00:10:04;;;;;;;15.20;9.52;;;5.00;99.90;;;;;;5012186;28;20781;-67
2021/03/08 00:12:31;;;;;;;12.55;8.73;;;3.90;99.90;;;;;;5012801;28;20480;-66
2021/03/08 00:14:57;;;;;;;11.10;8.90;;;4.10;99.90;;;;;;5008204;28;20395;-69
2021/03/08 00:17:23;;;;;;;11.70;8.20;;;5.00;99.90;;;;;;5009811;28;20381;-67
2021/03/08 00:19:49;;;;;;;10.77;7.78;;;3.90;99.90;;;;;;5011211;28;20951;-67
2021/03/08 00:22:14;;;;;;;11.52;7.93;;;4.10;99.90;;;;;;5011377;28;20393;-66
2021/03/08 00:24:40;;;;;;;10.82;7.55;;;4.50;99.90;;;;;;5009238;28;20391;-67
2021/03/08 00:27:06;;;;;;;9.50;7.23;;;4.10;99.90;;;;;;5007592;28;20515;-70
2021/03/08 00:29:32;;;;;;;11.30;8.02;;;3.30;99.90;;;;;;5009857;28;20751;-67
2021/03/08 00:31:57;;;;;;;12.23;8.30;;;3.50;99.90;;;;;;5011286;28;20472;-67
2021/03/08 00:34:23;;;;;;;14.57;7.95;;;3.90;99.90;;;;;;5012933;28;21011;-67
2021/03/08 00:36:50;;;;;;;11.13;8.30;;;4.50;99.90;;;;;;5010991;28;20442;-67
2021/03/08 00:39:15;;;;;;;11.25;8.48;;;3.80;99.90;;;;;;5008105;28;20464;-72
2021/03/08 00:41:41;;;;;;;9.30;7.30;;;3.70;99.90;;;;;;5011022;28;20471;-67
2021/03/08 00:44:07;;;;;;;10.88;7.50;;;3.90;99.90;;;;;;5010817;28;20390;-68
2021/03/08 00:46:34;;;;;;;14.63;8.63;;;3.60;99.90;;;;;;5009707;28;20432;-67
2021/03/08 00:49:00;;;;;;;10.73;8.52;;;3.30;99.90;;;;;;5011770;28;20381;-68
2021/03/08 00:51:26;;;;;;;10.80;8.20;;;4.10;99.90;;;;;;5008796;28;20879;-70
2021/03/08 00:53:52;;;;;;;11.88;8.65;;;3.60;99.90;;;;;;5012335;28;20389;-67
2021/03/08 00:56:17;;;;;;;10.88;7.82;;;3.20;99.90;;;;;;5012824;28;20416;-67
2021/03/08 00:58:43;;;;;;;11.47;8.13;;;3.60;99.90;;;;;;5009485;28;20389;-67
2021/03/08 01:01:09;;;;;;;12.60;9.07;;;4.50;99.90;;;;;;5012435;28;20377;-67
2021/03/08 01:03:34;;;;;;;13.93;8.57;;;3.50;99.90;;;;;;5010412;28;20381;-67
2021/03/08 01:06:00;;;;;;;12.10;8.77;;;3.40;99.90;;;;;;5007968;28;20440;-66
2021/03/08 01:08:25;;;;;;;14.40;8.38;;;3.40;99.90;;;;;;5008999;28;20391;-66
2021/03/08 01:10:51;;;;;;;14.00;8.25;;;3.00;99.90;;;;;;5007871;28;20384;-70
2021/03/08 01:13:17;;;;;;;12.00;8.20;;;3.30;99.90;;;;;;5009051;28;20387;-66
2021/03/08 01:15:42;;;;;;;12.45;9.15;;;3.00;99.90;;;;;;5007745;28;20419;-66
2021/03/08 01:18:08;;;;;;;12.53;7.97;;;3.50;99.90;;;;;;5008476;28;20464;-66
2021/03/08 01:20:34;;;;;;;11.20;8.33;;;3.80;99.90;;;;;;5008751;28;20392;-66
2021/03/08 01:23:00;;;;;;;15.38;10.05;;;3.30;99.90;;;;;;5011820;28;20468;-67
2021/03/08 01:25:29;;;;;;;12.10;8.25;;;3.80;99.90;;;;;;5009857;28;20960;-70
2021/03/08 01:27:56;;;;;;;10.77;8.33;;;3.30;99.90;;;;;;5011902;28;20959;-66
2021/03/08 01:30:24;;;;;;;13.90;9.27;;;4.00;99.90;;;;;;5015910;28;20478;-66
2021/03/08 01:32:50;;;;;;;13.90;9.70;;;3.00;99.90;;;;;;5014222;28;20388;-67
2021/03/08 01:35:16;;;;;;;13.10;9.70;;;3.00;99.90;;;;;;5010936;28;20388;-66
2021/03/08 01:37:42;;;;;;;11.43;8.77;;;3.60;99.90;;;;;;5011248;28;20472;-66
2021/03/08 01:40:14;;;;;;;12.55;9.07;;;4.00;99.90;;;;;;5010481;28;20821;-67
2021/03/08 01:42:41;;;;;;;13.50;8.97;;;2.70;99.90;;;;;;5011557;28;20960;-66
2021/03/08 01:45:12;;;;;;;11.80;8.30;;;3.10;99.90;;;;;;5025701;28;20428;-67
2021/03/08 01:47:39;;;;;;;13.52;9.00;;;2.10;99.90;;;;;;5011169;28;20424;-66
2021/03/08 01:50:06;;;;;;;14.48;9.57;;;3.80;99.90;;;;;;5010398;28;20387;-67
2021/03/08 01:52:32;;;;;;;12.03;7.97;;;2.50;99.90;;;;;;5011352;28;20599;-66
2021/03/08 01:54:58;;;;;;;13.75;8.30;;;3.10;99.90;;;;;;5010367;28;20463;-66
2021/03/08 01:57:24;;;;;;;13.60;9.00;;;2.50;99.90;;;;;;5010655;28;20487;-66
2021/03/08 01:59:49;;;;;;;11.00;8.15;;;2.80;99.90;;;;;;5010849;28;20388;-66
2021/03/08 02:02:16;;;;;;;12.60;8.20;;;2.60;99.90;;;;;;5009815;28;20377;-66
2021/03/08 02:04:42;;;;;;;9.77;7.63;;;3.50;99.90;;;;;;5009685;28;20725;-66
2021/03/08 02:07:09;;;;;;;11.15;7.90;;;2.50;99.90;;;;;;5010214;28;20418;-67
2021/03/08 02:09:35;;;;;;;14.10;9.15;;;2.50;99.90;;;;;;5010810;28;20750;-67
2021/03/08 02:12:14;;;;;;;10.63;8.07;;;3.10;99.90;;;;;;5009970;28;20392;-66
2021/03/08 02:15:07;;;;;;;10.45;7.70;;;2.20;99.90;;;;;;5010911;28;20430;-66
2021/03/08 02:17:48;;;;;;;11.55;8.60;;;2.00;99.90;;;;;;5011537;28;20400;-67
2021/03/08 02:21:06;;;;;;;11.18;7.78;;;2.20;99.90;;;;;;5010282;28;20447;-67
2021/03/08 02:23:47;;;;;;;12.20;8.57;;;2.30;99.90;;;;;;4987700;28;20537;-66
2021/03/08 02:26:19;;;;;;;13.05;9.38;;;2.00;99.90;;;;;;5009825;28;20931;-66
2021/03/08 02:28:58;;;;;;;13.50;9.05;;;2.90;99.90;;;;;;5010740;28;20520;-66
2021/03/08 02:31:25;;;;;;;13.02;8.90;;;1.70;99.90;;;;;;5010651;28;20438;-66
2021/03/08 02:34:05;;;;;;;10.35;9.10;;;1.70;99.90;;;;;;5010633;28;20412;-67
2021/03/08 02:36:38;;;;;;;12.40;8.53;;;1.70;99.90;;;;;;5010642;28;20430;-66
2021/03/08 02:39:29;;;;;;;11.93;8.88;;;2.60;99.90;;;;;;5009973;28;20842;-67
2021/03/08 02:41:57;;;;;;;13.70;9.63;;;2.90;99.90;;;;;;5005766;28;21043;-67
2021/03/08 02:44:29;;;;;;;12.93;8.47;;;3.10;99.90;;;;;;5010703;28;20710;-67
2021/03/08 02:46:56;;;;;;;12.47;8.87;;;1.60;99.90;;;;;;5010568;28;20514;-66
2021/03/08 02:49:26;;;;;;;11.40;8.68;;;2.00;99.90;;;;;;5010520;28;20416;-66
2021/03/08 02:52:07;;;;;;;10.35;8.50;;;1.60;99.90;;;;;;5010486;28;20387;-66
2021/03/08 02:54:34;;;;;;;14.75;9.30;;;1.80;99.90;;;;;;5010087;28;20418;-67
2021/03/08 02:57:03;;;;;;;10.25;8.40;;;2.50;99.90;;;;;;5009997;28;20389;-66
2021/03/08 02:59:32;;;;;;;14.02;8.95;;;1.70;99.90;;;;;;5010402;28;20381;-66
2021/03/08 03:01:59;;;;;;;13.48;8.77;;;2.00;99.90;;;;;;5010207;28;20687;-68
2021/03/08 03:04:26;;;;;;;14.20;9.17;;;2.80;99.90;;;;;;5010436;28;20458;-66
2021/03/08 03:06:52;;;;;;;16.48;9.10;;;1.70;99.90;;;;;;5010328;28;20530;-66
2021/03/08 03:09:20;;;;;;;12.23;9.13;;;1.60;99.90;;;;;;5009849;28;20719;-67
2021/03/08 03:11:53;;;;;;;17.55;8.98;;;1.80;99.90;;;;;;5010340;28;20472;-66
2021/03/08 03:14:20;;;;;;;13.18;8.70;;;2.00;99.90;;;;;;5011635;28;20381;-66
2021/03/08 03:16:50;;;;;;;16.27;11.30;;;2.00;99.90;;;;;;5013493;28;20885;-66
2021/03/08 03:19:18;;;;;;;15.25;10.43;;;1.80;99.90;;;;;;5013155;28;20435;-67
2021/03/08 03:21:46;;;;;;;15.02;10.55;;;1.60;99.90;;;;;;5013947;28;20400;-67
2021/03/08 03:24:12;;;;;;;14.98;10.55;;;1.80;99.90;;;;;;5013132;28;20424;-66
2021/03/08 03:26:39;;;;;;;15.60;10.90;;;1.40;99.90;;;;;;5013180;28;20462;-66
2021/03/08 03:29:08;;;;;;;11.60;8.35;;;1.40;99.90;;;;;;5013094;28;20392;-66
2021/03/08 03:31:37;;;;;;;12.85;9.60;;;1.70;99.90;;;;;;5013118;28;20749;-66
2021/03/08 03:34:04;;;;;;;13.80;10.00;;;1.40;99.90;;;;;;5012711;28;20487;-67
2021/03/08 03:36:33;;;;;;;13.25;9.60;;;1.50;99.90;;;;;;5013133;28;20944;-66
2021/03/08 03:38:59;;;;;;;16.27;11.07;;;1.70;99.90;;;;;;5013443;28;20443;-67
2021/03/08 03:41:26;;;;;;;17.05;11.00;;;1.60;99.90;;;;;;5012997;28;20708;-66
2021/03/08 03:43:53;;;;;;;17.58;10.43;;;2.00;99.90;;;;;;5013335;28;20381;-66
2021/03/08 03:46:19;;;;;;;12.50;9.93;;;1.60;99.90;;;;;;5012713;28;20409;-66
2021/03/08 03:48:45;;;;;;;14.40;10.52;;;1.60;99.90;;;;;;5013412;28;20381;-66
2021/03/08 03:51:11;;;;;;;14.40;10.23;;;;;;;;;;5012622;28;20404;-66
2021/03/08 03:53:38;;;;;;;17.10;11.40;;;1.20;99.90;;;;;;5013151;28;20454;-67
2021/03/08 03:56:08;;;;;;;15.40;10.70;;;1.10;99.90;;;;;;5012329;28;20393;-67
2021/03/08 03:58:51;;;;;;;15.05;11.13;;;1.70;99.90;;;;;;5013086;28;20714;-67
2021/03/08 04:01:24;;;;;;;13.88;10.70;;;1.00;99.90;;;;;;5012100;28;20860;-67
2021/03/08 04:03:58;;;;;;;13.93;10.13;;;;;;;;;;5012723;28;20438;-66
2021/03/08 04:06:34;;;;;;;13.10;10.40;;;0.90;99.90;;;;;;5012239;28;20447;-66
2021/03/08 04:09:01;;;;;;;15.80;10.47;;;;;;;;;;5012983;28;20793;-66
2021/03/08 04:11:32;;;;;;;14.30;10.55;;;0.90;99.90;;;;;;5012778;28;20373;-66
2021/03/08 04:14:01;;;;;;;14.00;11.00;;;2.10;99.90;;;;;;5012829;28;20377;-66
2021/03/08 04:16:29;;;;;;;15.93;10.70;;;0.70;99.90;;;;;;5012799;28;20424;-67
2021/03/08 04:18:58;;;;;;;15.73;11.05;;;1.00;99.90;;;;;;5012737;28;20396;-66
2021/03/08 04:21:25;;;;;;;14.75;10.95;;;1.00;99.90;;;;;;5011966;28;20381;-66
2021/03/08 04:23:52;;;;;;;17.53;11.87;;;1.10;99.90;;;;;;5012349;28;20396;-66
2021/03/08 04:26:20;;;;;;;18.33;12.18;;;0.90;99.90;;;;;;5011835;28;20424;-66
2021/03/08 04:28:46;;;;;;;15.27;9.90;;;1.10;99.90;;;;;;5012431;28;20447;-66
2021/03/08 04:31:13;;;;;;;14.90;10.20;;;1.20;99.90;;;;;;5011696;28;20397;-66
2021/03/08 04:33:40;;;;;;;17.08;10.95;;;0.60;99.90;;;;;;5011821;28;20408;-66
2021/03/08 04:36:07;;;;;;;14.63;10.70;;;0.90;99.90;;;;;;5011441;28;20774;-67
2021/03/08 04:38:34;;;;;;;15.60;12.00;;;;;;;;;;5012089;28;20424;-66
2021/03/08 04:41:00;;;;;;;17.02;11.85;;;0.70;99.90;;;;;;5012216;28;20384;-67
2021/03/08 04:43:26;;;;;;;14.73;10.77;;;0.60;99.90;;;;;;5011922;28;20411;-66
2021/03/08 04:45:55;;;;;;;18.35;11.82;;;0.60;99.90;;;;;;5012136;28;20400;-67
2021/03/08 04:48:22;;;;;;;16.00;11.60;;;0.80;99.90;;;;;;5011304;28;20404;-66
2021/03/08 04:50:50;;;;;;;15.13;11.30;;;0.80;99.90;;;;;;5012196;28;20415;-66
2021/03/08 04:53:16;;;;;;;14.48;10.85;;;2.00;99.90;;;;;;5011364;28;20381;-66
2021/03/08 04:55:43;;;;;;;15.63;10.40;;;0.80;99.90;;;;;;5012042;28;20377;-66
2021/03/08 04:58:09;;;;;;;16.65;11.15;;;0.40;99.90;;;;;;5010885;28;20404;-66
2021/03/08 05:00:35;;;;;;;19.45;11.95;;;;;;;;;;5011933;28;20389;-67
2021/03/08 05:03:04;;;;;;;18.75;12.35;;;;;;;;;;5012371;28;20377;-66
2021/03/08 05:05:30;;;;;;;15.48;10.25;;;0.50;99.90;;;;;;5012146;28;20784;-67
2021/03/08 05:08:01;;;;;;;16.33;11.77;;;;;;;;;;5012013;28;20427;-67
2021/03/08 05:10:28;;;;;;;19.05;12.25;;;0.50;99.90;;;;;;5011733;28;20389;-67
2021/03/08 05:12:57;;;;;;;15.45;11.38;;;0.90;99.90;;;;;;5011780;28;20773;-67
2021/03/08 05:15:25;;;;;;;13.60;11.00;;;1.10;99.90;;;;;;5011138;28;20893;-67
2021/03/08 05:17:56;;;;;;;16.58;10.82;;;0.70;99.90;;;;;;5012314;28;20400;-66
2021/03/08 05:20:23;;;;;;;17.83;13.07;;;0.40;99.90;;;;;;5011847;28;20388;-67
2021/03/08 05:22:49;;;;;;;16.27;11.05;;;0.60;99.90;;;;;;5011871;28;20384;-67
2021/03/08 05:25:15;;;;;;;15.85;11.07;;;0.50;99.90;;;;;;5011417;28;20515;-67
2021/03/08 05:27:43;;;;;;;16.58;12.40;;;2.30;99.90;;;;;;5011494;28;20429;-67
2021/03/08 05:30:13;;;;;;;15.40;12.02;;;0.50;99.90;;;;;;5011361;28;20385;-67
2021/03/08 05:32:53;;;;;;;17.70;11.90;;;0.40;99.90;;;;;;5011442;28;20384;-67
2021/03/08 05:35:21;;;;;;;15.48;11.57;;;0.50;99.90;;;;;;5010980;28;20389;-67
2021/03/08 05:37:47;;;;;;;15.35;12.00;;;0.50;99.90;;;;;;5011091;28;20393;-67
2021/03/08 05:40:21;;;;;;;16.00;11.63;;;0.90;99.90;;;;;;5011132;28;20399;-67
2021/03/08 05:43:01;;;;;;;17.13;12.20;;;0.30;99.90;;;;;;5011693;28;20403;-66
2021/03/08 05:45:30;;;;;;;18.17;11.30;;;0.50;99.90;;;;;;5010987;28;21124;-67
2021/03/08 05:48:19;;;;;;;16.05;11.95;;;0.20;99.90;;;;;;5011747;28;20421;-67
2021/03/08 05:50:48;;;;;;;15.68;11.63;;;;;;;;;;5011841;28;20486;-67
2021/03/08 05:53:35;;;;;;;15.45;11.50;;;0.00;99.90;;;;;;5026286;28;20873;-65
2021/03/08 05:56:11;;;;;;;15.20;11.05;;;0.10;99.90;;;;;;5011548;28;20442;-67
2021/03/08 05:58:58;;;;;;;17.05;11.65;;;0.40;99.90;;;;;;5011304;28;20416;-67
2021/03/08 06:01:47;;;;;;;14.63;10.90;;;0.20;99.90;;;;;;5011003;28;20385;-66
2021/03/08 06:04:28;;;;;;;14.70;10.57;;;0.20;99.90;;;;;;5010738;28;20514;-67
2021/03/08 06:07:00;;;;;;;16.77;11.70;;;;;;;;;;5011605;28;20416;-67
2021/03/08 06:09:27;;;;;;;16.10;12.32;;;;;;;;;;5011487;28;20369;-67
2021/03/08 06:12:16;;;;;;;14.63;10.63;;;0.20;99.90;;;;;;5011576;28;20790;-67
2021/03/08 06:14:46;;;;;;;13.90;10.75;;;;;;;;;;5011609;28;20722;-66
2021/03/08 06:17:17;;;;;;;15.90;10.45;;;0.00;99.90;;;;;;5010649;28;20737;-67
2021/03/08 06:19:44;;;;;;;16.63;11.23;;;0.20;99.90;;;;;;5011182;28;20810;-66
2021/03/08 06:22:11;;;;;;;14.85;10.80;;;0.30;99.90;;;;;;5010580;28;20383;-69
2021/03/08 06:24:38;;;;;;;15.45;11.50;;;;;;;;;;5011339;28;20385;-67
2021/03/08 06:27:07;;;;;;;14.52;10.30;;;0.00;99.90;;;;;;5010785;28;20439;-67
2021/03/08 06:29:35;;;;;;;14.35;11.60;;;0.20;99.90;;;;;;5010601;28;20735;-67
2021/03/08 06:32:01;;;;;;;16.90;11.18;;;0.20;99.90;;;;;;5006834;28;20378;-67
2021/03/08 06:34:27;;;;;;;14.82;10.73;;;0.10;99.90;;;;;;5006830;28;20436;-67
2021/03/08 06:36:54;;;;;;;14.33;11.20;;;0.00;99.90;;;;;;5010229;28;20416;-67
2021/03/08 06:39:20;;;;;;;16.35;11.52;;;0.90;99.90;;;;;;5009586;28;20419;-67
2021/03/08 06:41:46;;;;;;;17.38;10.70;;;0.80;99.90;;;;;;5010941;28;20416;-67
2021/03/08 06:44:12;;;;;;;15.37;10.43;;;0.10;99.90;;;;;;5010458;28;20392;-68
2021/03/08 06:46:37;;;;;;;15.80;10.95;;;0.30;99.90;;;;;;5010961;28;20515;-67
2021/03/08 06:49:04;;;;;;;15.60;10.80;;;0.80;99.90;;;;;;5014462;28;20858;-67
2021/03/08 06:51:30;;;;;;;15.07;10.65;;;0.80;99.90;;;;;;5013613;28;20892;-67
2021/03/08 06:53:55;;;;;;;13.27;10.20;;;1.60;99.90;;;;;;5014801;28;20384;-68
2021/03/08 06:56:26;;;;;;;13.15;9.50;;;0.90;99.90;;;;;;5014025;28;20927;-68
2021/03/08 06:59:14;;;;;;;13.73;10.70;;;0.10;99.90;;;;;;5029938;28;20425;-68
2021/03/08 07:01:41;;;;;;;16.35;11.07;;;0.50;99.90;;;;;;5014252;28;20892;-68
2021/03/08 07:04:24;;;;;;;14.88;10.15;;;0.30;99.90;;;;;;5014405;28;20385;-68
2021/03/08 07:07:04;;;;;;;15.63;10.57;;;0.30;99.90;;;;;;5014232;28;20515;-68
2021/03/08 07:09:31;;;;;;;15.45;11.20;;;0.50;99.90;;;;;;5012893;28;20392;-68
2021/03/08 07:12:13;;;;;;;15.85;12.02;;;0.20;99.90;;;;;;5009713;28;20405;-68
2021/03/08 07:14:40;;;;;;;16.65;10.70;;;0.30;99.90;;;;;;5012331;28;20389;-67
2021/03/08 07:17:28;;;;;;;14.30;10.57;;;0.70;99.90;;;;;;5014023;28;20393;-67
2021/03/08 07:19:58;;;;;;;13.18;10.65;;;0.80;99.90;;;;;;5005504;28;20393;-69
2021/03/08 07:22:37;;;;;;;17.30;10.63;;;0.70;99.90;;;;;;4998841;28;20769;-69
2021/03/08 07:25:15;;;;;;;14.60;10.33;;;0.60;99.90;;;;;;5003783;28;20467;-72
2021/03/08 07:27:46;;;;;;;11.70;9.70;;;1.40;99.90;;;;;;5000511;28;20428;-71
2021/03/08 07:30:13;;;;;;;17.00;11.32;;;0.70;99.90;;;;;;5001684;28;20766;-70
2021/03/08 07:33:00;;;;;;;13.50;10.98;;;0.70;99.90;;;;;;4999632;28;20393;-68
2021/03/08 07:35:53;;;;;;;11.68;10.48;;;0.80;99.90;;;;;;5001553;28;20392;-68
2021/03/08 07:38:30;;;;;;;13.38;11.52;;;0.70;99.90;;;;;;4999509;28;20428;-69
2021/03/08 07:41:11;;;;;;;17.43;11.40;;;0.70;99.90;;;;;;4997296;28;21102;-72
2021/03/08 07:43:37;;;;;;;14.40;10.90;;;1.20;99.90;;;;;;4999470;28;20385;-72
2021/03/08 07:46:03;;;;;;;12.05;10.60;;;1.00;99.90;;;;;;5001946;28;20389;-69
2021/03/08 07:48:29;;;;;;;17.33;11.60;;;1.00;99.90;;;;;;5000305;28;20455;-69
2021/03/08 07:50:55;;;;;;;14.00;11.05;;;0.80;99.90;;;;;;5001073;28;21840;-69
2021/03/08 07:53:33;;;;;;;14.60;10.73;;;0.90;99.90;;;;;;5006508;28;20871;-69
2021/03/08 07:56:01;;;;;;;13.38;11.32;;;0.90;99.90;;;;;;5002092;28;20385;-68
2021/03/08 07:58:31;;;;;;;15.23;10.80;;;1.10;99.90;;;;;;5001193;28;20393;-69
2021/03/08 08:00:59;;;;;;;13.60;10.77;;;3.10;99.90;;;;;;4998974;28;20451;-70
2021/03/08 08:03:25;;;;;;;13.30;10.27;;;2.20;99.90;;;;;;5002526;28;20796;-68
2021/03/08 08:05:54;;;;;;;15.13;10.60;;;1.00;99.90;;;;;;5000214;28;20479;-68
2021/03/08 08:08:21;;;;;;;13.73;11.17;;;1.10;99.90;;;;;;5001078;28;20397;-69
2021/03/08 08:10:52;;;;;;;14.80;11.55;;;1.10;99.90;;;;;;5001230;28;20376;-69
2021/03/08 08:13:18;;;;;;;14.27;11.00;;;2.60;99.90;;;;;;5001306;28;20887;-69
2021/03/08 08:15:47;;;;;;;15.70;11.48;;;1.20;99.90;;;;;;5002342;28;20389;-69
2021/03/08 08:18:17;;;;;;;14.87;12.13;;;2.30;99.90;;;;;;5002924;28;20391;-71
2021/03/08 08:20:45;;;;;;;13.10;10.60;;;1.40;99.90;;;;;;5012677;28;20889;-69
2021/03/08 08:23:14;;;;;;;17.45;12.38;;;1.50;99.90;;;;;;5000035;28;21131;-69
2021/03/08 08:25:41;;;;;;;24.80;12.70;;;1.60;99.90;;;;;;4999002;28;20926;-71
2021/03/08 08:28:07;;;;;;;16.42;11.75;;;1.70;99.90;;;;;;4999297;28;20452;-70
2021/03/08 08:30:33;;;;;;;15.20;11.60;;;1.90;99.90;;;;;;4999009;28;20412;-71
2021/03/08 08:32:59;;;;;;;16.95;12.35;;;1.60;99.90;;;;;;4997595;28;21402;-70
2021/03/08 08:35:30;;;;;;;15.63;11.10;;;1.40;99.90;;;;;;4997402;28;20396;-70
2021/03/08 08:38:07;;;;;;;15.70;12.77;;;1.80;99.90;;;;;;4998838;28;20389;-70
2021/03/08 08:40:44;;;;;;;18.80;12.43;;;1.90;99.90;;;;;;4999075;28;20416;-70
2021/03/08 08:43:15;;;;;;;15.40;12.40;;;2.40;99.90;;;;;;5014383;28;20394;-72
2021/03/08 08:46:21;;;;;;;16.67;11.73;;;1.60;99.90;;;;;;4998498;28;20403;-69
2021/03/08 08:49:08;;;;;;;17.20;12.13;;;;;;;;;;4998096;28;20471;-72
2021/03/08 08:51:57;;;;;;;15.75;11.75;;;2.20;99.90;;;;;;4995048;28;20388;-70
2021/03/08 08:54:29;;;;;;;16.33;12.45;;;2.20;99.90;;;;;;4998472;28;20470;-70
2021/03/08 08:56:59;;;;;;;18.70;12.20;;;2.90;99.90;;;;;;4997260;28;20405;-69
2021/03/08 08:59:26;;;;;;;17.70;12.45;;;2.20;99.90;;;;;;4998351;28;20502;-68
2021/03/08 09:02:10;;;;;;;14.15;11.48;;;2.70;99.90;;;;;;4996702;28;20455;-68
2021/03/08 09:04:36;;;;;;;16.52;10.85;;;2.30;99.90;;;;;;5013613;28;20404;-68
2021/03/08 09:07:23;;;;;;;18.45;11.52;;;2.60;99.90;;;;;;4997934;28;20711;-68
2021/03/08 09:09:49;;;;;;;21.88;12.35;;;2.50;99.90;;;;;;5015331;28;21285;-68
2021/03/08 09:12:27;;;;;;;17.13;11.70;;;2.10;99.90;;;;;;4999961;28;20393;-70
2021/03/08 09:15:01;;;;;;;15.55;11.23;;;2.20;99.90;;;;;;4998850;28;20396;-69
2021/03/08 09:17:30;;;;;;;13.85;10.70;;;3.10;99.90;;;;;;4998510;28;20411;-69
2021/03/08 09:19:55;;;;;;;15.15;11.43;;;2.60;99.90;;;;;;5001517;28;20391;-72
2021/03/08 09:22:27;;;;;;;15.18;11.15;;;2.60;99.90;;;;;;4992056;28;20877;-72
2021/03/08 09:25:00;;;;;;;14.23;10.80;;;2.90;99.90;;;;;;4998356;28;20495;-69
2021/03/08 09:27:30;;;;;;;14.95;10.90;;;3.10;99.90;;;;;;4997912;28;20470;-71
2021/03/08 09:30:02;;;;;;;11.60;9.65;;;4.20;99.90;;;;;;4999243;28;20435;-69
2021/03/08 09:32:28;;;;;;;15.77;11.45;;;3.10;99.90;;;;;;4995868;28;20895;-68
2021/03/08 09:35:00;;;;;;;12.90;11.02;;;3.30;99.90;;;;;;4996061;28;20509;-70
2021/03/08 09:37:27;;;;;;;18.03;11.70;;;3.40;99.90;;;;;;5001419;28;20407;-69
2021/03/08 09:39:55;;;;;;;16.23;10.88;;;3.10;99.90;;;;;;4999163;28;20517;-69
2021/03/08 09:42:21;;;;;;;12.40;10.30;;;2.90;99.90;;;;;;4995261;28;20415;-69
2021/03/08 09:44:48;;;;;;;13.68;10.68;;;2.80;99.90;;;;;;4997888;28;20587;-70
2021/03/08 09:47:14;;;;;;;16.10;11.20;;;2.80;99.90;;;;;;4998580;28;20948;-69
2021/03/08 09:49:54;;;;;;;14.90;10.75;;;3.20;99.90;;;;;;4997513;28;20420;-72
2021/03/08 09:52:39;;;;;;;14.07;10.82;;;3.40;99.90;;;;;;4993138;28;20403;-69
2021/03/08 09:55:14;;;;;;;13.60;10.68;;;3.30;99.90;;;;;;4997843;28;20447;-69
2021/03/08 09:57:41;;;;;;;13.05;10.80;;;3.40;99.90;;;;;;4998163;28;20413;-68
2021/03/08 10:00:09;;;;;;;14.67;10.97;;;3.70;99.90;;;;;;4994634;28;20532;-69
2021/03/08 10:02:35;;;;;;;14.40;10.25;;;4.00;99.90;;;;;;4993732;28;20408;-68
2021/03/08 10:05:01;;;;;;;12.82;9.15;;;4.10;99.90;;;;;;4995551;28;20884;-69
2021/03/08 10:07:27;;;;;;;14.48;11.32;;;4.00;99.90;;;;;;4996501;28;20425;-69
2021/03/08 10:10:10;;;;;;;11.77;9.20;;;4.20;99.90;;;;;;4999590;28;21513;-71
2021/03/08 10:12:36;;;;;;;14.98;10.65;;;5.30;99.90;;;;;;5010206;28;20500;-69
2021/03/08 10:15:06;;;;;;;12.60;10.57;;;4.10;99.90;;;;;;5014212;28;20401;-68
2021/03/08 10:17:32;;;;;;;12.65;9.95;;;4.30;99.90;;;;;;4997530;28;20389;-71
2021/03/08 10:20:00;;;;;;;14.25;10.07;;;5.70;99.90;;;;;;4999228;28;20431;-73
2021/03/08 10:22:40;;;;;;;13.25;11.00;;;5.00;99.90;;;;;;4997340;28;20381;-68
2021/03/08 10:25:25;;;;;;;12.07;9.50;;;;;;;;;;5002782;28;21046;-71
2021/03/08 10:27:58;;;;;;;14.75;11.20;;;4.60;99.90;;;;;;5001894;28;20594;-72
2021/03/08 10:30:26;;;;;;;13.32;9.60;;;4.40;99.90;;;;;;5002348;28;20995;-69
2021/03/08 10:32:55;;;;;;;16.05;10.73;;;4.70;99.90;;;;;;4998962;28;20809;-69
2021/03/08 10:35:22;;;;;;;11.93;9.25;;;4.70;99.90;;;;;;5001668;28;20948;-68
2021/03/08 10:37:48;;;;;;;12.70;10.35;;;4.90;99.90;;;;;;5001677;28;20393;-71
2021/03/08 10:40:17;;;;;;;13.80;10.10;;;5.80;99.90;;;;;;5003761;28;20476;-68
2021/03/08 10:42:43;;;;;;;11.52;9.88;;;5.40;99.90;;;;;;5017647;28;20891;-68
2021/03/08 10:45:10;;;;;;;13.77;9.90;;;5.60;99.90;;;;;;5005068;28;20388;-70
2021/03/08 10:47:37;;;;;;;13.85;9.88;;;5.70;99.90;;;;;;5006635;28;20450;-69
2021/03/08 10:50:05;;;;;;;14.23;9.43;;;6.40;99.90;;;;;;5004364;28;20389;-67
2021/03/08 10:52:31;;;;;;;13.43;9.52;;;5.50;99.90;;;;;;5001293;28;20429;-70
2021/03/08 10:54:56;;;;;;;11.30;9.82;;;5.20;99.90;;;;;;5006208;28;20385;-69
2021/03/08 10:57:24;;;;;;;16.63;11.00;;;5.40;99.90;;;;;;5003254;28;20542;-68
2021/03/08 10:59:55;;;;;;;14.10;10.48;;;5.60;99.90;;;;;;5004625;28;20403;-69
2021/03/08 11:02:22;;;;;;;13.55;10.43;;;6.20;99.90;;;;;;5001542;28;20818;-72
2021/03/08 11:05:12;;;;;;;11.30;10.10;;;6.20;99.90;;;;;;5003684;28;20468;-69
2021/03/08 11:07:42;;;;;;;11.68;9.82;;;5.90;99.90;;;;;;5001481;28;20428;-69
2021/03/08 11:10:09;;;;;;;14.02;11.20;;;6.00;99.90;;;;;;5004692;28;20884;-70
2021/03/08 11:12:35;;;;;;;12.85;10.85;;;6.50;99.90;;;;;;5002844;28;20442;-71
2021/03/08 11:15:02;;;;;;;15.23;9.85;;;6.50;99.90;;;;;;5003223;28;20871;-69
2021/03/08 11:17:33;;;;;;;12.32;9.30;;;6.60;99.90;;;;;;5000244;28;20400;-69
2021/03/08 11:20:28;;;;;;;12.77;10.05;;;6.30;99.90;;;;;;5005299;28;20401;-69
2021/03/08 11:23:08;;;;;;;12.43;10.50;;;7.10;99.90;;;;;;5002428;28;20411;-70
2021/03/08 11:25:39;;;;;;;13.10;10.87;;;7.00;99.90;;;;;;5004097;28;20912;-69
2021/03/08 11:28:10;;;;;;;12.68;10.00;;;7.00;99.90;;;;;;5004821;28;20425;-69
2021/03/08 11:30:38;;;;;;;13.20;10.57;;;7.30;99.10;;;;;;5003909;28;20394;-69
2021/03/08 11:33:08;;;;;;;11.48;9.68;;;6.90;99.80;;;;;;5004441;28;20884;-70
2021/03/08 11:35:36;;;;;;;11.90;10.63;;;7.70;99.90;;;;;;5002919;28;20468;-69
2021/03/08 11:38:06;;;;;;;11.13;10.03;;;8.40;99.90;;;;;;5003103;28;20848;-70
2021/03/08 11:40:33;;;;;;;10.98;9.55;;;8.50;99.90;;;;;;5003909;28;20391;-69
2021/03/08 11:42:59;;;;;;;12.75;10.30;;;8.90;97.00;;;;;;5003068;28;20776;-70
2021/03/08 11:45:26;;;;;;;11.15;9.60;;;9.40;95.80;;;;;;5002268;28;20607;-71
2021/03/08 11:47:54;;;;;;;9.90;8.85;;;9.40;96.40;;;;;;5003826;28;20422;-72
2021/03/08 11:50:21;;;;;;;11.80;9.05;;;9.90;99.10;;;;;;5005488;28;20385;-69
2021/03/08 11:52:47;;;;;;;10.90;9.63;;;9.20;97.60;;;;;;4999344;28;20393;-71
2021/03/08 11:55:14;;;;;;;10.48;8.70;;;10.40;94.60;;;;;;5003567;28;20527;-70
2021/03/08 11:57:44;;;;;;;11.38;9.50;;;9.00;95.40;;;;;;5002787;28;20888;-69
2021/03/08 12:00:11;;;;;;;11.88;9.48;;;10.20;98.00;;;;;;5003472;28;20462;-70
2021/03/08 12:02:37;;;;;;;10.85;9.27;;;10.60;97.10;;;;;;5015307;28;20450;-69
2021/03/08 12:05:03;;;;;;;10.95;9.85;;;10.40;93.30;;;;;;5003693;28;20385;-69
2021/03/08 12:07:29;;;;;;;11.30;9.55;;;10.20;87.60;;;;;;4998539;28;20440;-70
2021/03/08 12:09:54;;;;;;;10.32;9.32;;;10.90;87.30;;;;;;5004411;28;20389;-71
2021/03/08 12:12:20;;;;;;;11.27;9.33;;;10.80;91.00;;;;;;5002021;28;20396;-72
2021/03/08 12:14:46;;;;;;;11.53;9.20;;;10.70;82.90;;;;;;4998432;28;20386;-71
2021/03/08 12:17:11;;;;;;;10.00;9.00;;;10.60;82.70;;;;;;5001880;28;20392;-70
2021/03/08 12:19:37;;;;;;;10.77;8.90;;;11.50;91.20;;;;;;5003045;28;20459;-70
2021/03/08 12:22:04;;;;;;;10.60;9.35;;;12.10;86.60;;;;;;4999896;28;20397;-71
2021/03/08 12:24:30;;;;;;;10.80;9.48;;;11.80;84.10;;;;;;5002557;28;20396;-71
2021/03/08 12:26:56;;;;;;;9.90;8.90;;;11.40;85.00;;;;;;5001597;28;20459;-70
2021/03/08 12:29:21;;;;;;;10.93;9.75;;;11.80;87.30;;;;;;5002066;28;20777;-69
2021/03/08 12:31:47;;;;;;;9.87;8.87;;;11.80;83.40;;;;;;4999091;28;20418;-72
2021/03/08 12:34:13;;;;;;;10.47;9.37;;;11.60;83.80;;;;;;5001580;28;20413;-68
2021/03/08 12:36:38;;;;;;;10.93;9.82;;;11.90;83.30;;;;;;5002230;28;20877;-69
2021/03/08 12:39:04;;;;;;;10.15;9.00;;;11.70;81.70;;;;;;5002096;28;20390;-70
2021/03/08 12:41:30;;;;;;;11.65;8.63;;;11.50;90.50;;;;;;5000490;28;20396;-68
2021/03/08 12:43:56;;;;;;;9.70;8.70;;;12.00;78.70;;;;;;5001463;28;20409;-69
2021/03/08 12:46:24;;;;;;;9.52;8.52;;;12.20;80.40;;;;;;5003362;28;20798;-72
2021/03/08 12:48:50;;;;;;;11.02;9.20;;;11.10;84.20;;;;;;5002340;28;20466;-70
2021/03/08 12:51:16;;;;;;;10.25;9.15;;;13.20;85.10;;;;;;5016000;28;20400;-70
2021/03/08 12:53:42;;;;;;;9.40;8.40;;;11.80;81.50;;;;;;5003141;28;20435;-69
2021/03/08 12:56:07;;;;;;;9.83;8.83;;;11.20;72.90;;;;;;5002801;28;20389;-68
2021/03/08 12:58:34;;;;;;;10.27;9.18;;;12.70;72.10;;;;;;5001795;28;20488;-73